Time;durP1;ratioP1;P1;durP2;ratioP2;P2;SDS_P1;SDS_P2;PMS_P1;PMS_P2;Temp;Humidity;BMP_temperature;BMP_pressure;BME280_temperature;BME280_humidity;BME280_pressure;Samples;Min_cycle;Max_cycle;Signal;HPM_P1;HPM_P2
2021/03/21 00:00:46;;;;;;;9.18;4.43;;;4.20;99.90;;;;;;5057606;28;20079;-63
2021/03/21 00:03:12;;;;;;;9.35;4.13;;;4.40;99.90;;;;;;5057472;28;20131;-63
2021/03/21 00:05:38;;;;;;;9.75;3.97;;;4.30;99.90;;;;;;5059005;28;20089;-63
2021/03/21 00:08:12;;;;;;;7.72;4.10;;;4.30;99.90;;;;;;5058932;28;20032;-63
2021/03/21 00:10:38;;;;;;;6.90;4.13;;;4.30;99.90;;;;;;5058837;28;20033;-63
2021/03/21 00:13:04;;;;;;;10.52;4.65;;;4.30;99.90;;;;;;5058447;28;20675;-63
2021/03/21 00:15:31;;;;;;;10.93;4.80;;;4.30;99.90;;;;;;5041526;28;20075;-63
2021/03/21 00:17:57;;;;;;;10.13;5.15;;;4.40;99.90;;;;;;5059207;28;20043;-64
2021/03/21 00:20:28;;;;;;;8.88;4.53;;;4.40;99.90;;;;;;5059144;28;20790;-64
2021/03/21 00:22:54;;;;;;;10.90;5.45;;;4.50;99.90;;;;;;5046216;28;20484;-64
2021/03/21 00:25:22;;;;;;;12.15;5.10;;;4.40;99.90;;;;;;5059516;28;20036;-63
2021/03/21 00:27:48;;;;;;;13.85;4.95;;;4.40;99.90;;;;;;5058515;28;20082;-63
2021/03/21 00:30:17;;;;;;;10.02;5.25;;;4.30;99.90;;;;;;5058726;28;20120;-63
2021/03/21 00:32:42;;;;;;;10.15;5.75;;;4.40;99.90;;;;;;5058886;28;20036;-63
2021/03/21 00:35:09;;;;;;;8.55;5.03;;;4.30;99.90;;;;;;5058023;28;20401;-64
2021/03/21 00:37:40;;;;;;;10.70;5.32;;;4.30;99.90;;;;;;5058954;28;20032;-63
2021/03/21 00:40:09;;;;;;;10.13;5.38;;;4.30;99.90;;;;;;5058467;28;20029;-63
2021/03/21 00:42:35;;;;;;;10.70;5.38;;;4.30;99.90;;;;;;5058689;28;20025;-63
2021/03/21 00:45:02;;;;;;;9.48;5.78;;;4.30;99.90;;;;;;5057784;28;20043;-63
2021/03/21 00:47:28;;;;;;;10.93;6.05;;;4.20;99.90;;;;;;5058772;28;20820;-63
2021/03/21 00:49:54;;;;;;;10.77;5.90;;;4.20;99.90;;;;;;5057946;28;20058;-63
2021/03/21 00:52:19;;;;;;;11.88;6.07;;;4.20;99.90;;;;;;5058873;28;20040;-63
2021/03/21 00:54:45;;;;;;;10.80;6.18;;;4.20;99.90;;;;;;5058397;28;20028;-64
2021/03/21 00:57:10;;;;;;;15.13;7.07;;;4.20;99.90;;;;;;5022593;28;20135;-64
2021/03/21 00:59:37;;;;;;;15.65;6.63;;;4.20;99.90;;;;;;5058277;28;20042;-64
2021/03/21 01:02:04;;;;;;;14.77;7.05;;;4.20;99.90;;;;;;5040085;28;20086;-64
2021/03/21 01:04:29;;;;;;;12.27;6.97;;;4.10;99.90;;;;;;5058081;28;20060;-64
2021/03/21 01:06:55;;;;;;;15.07;7.40;;;4.10;99.90;;;;;;5057284;28;20108;-64
2021/03/21 01:09:21;;;;;;;15.10;7.90;;;4.00;99.90;;;;;;5039472;28;20095;-64
2021/03/21 01:11:46;;;;;;;19.50;8.90;;;4.00;99.90;;;;;;5057647;28;20032;-64
2021/03/21 01:14:12;;;;;;;16.42;8.35;;;3.90;99.90;;;;;;5057033;28;20028;-63
2021/03/21 01:16:41;;;;;;;15.40;8.27;;;4.00;99.90;;;;;;5038980;28;20044;-64
2021/03/21 01:19:12;;;;;;;14.50;8.38;;;4.00;99.90;;;;;;5047528;28;20047;-64
2021/03/21 01:21:43;;;;;;;20.98;9.73;;;4.00;99.90;;;;;;5038679;28;20083;-63
2021/03/21 01:24:10;;;;;;;19.52;9.05;;;4.00;99.90;;;;;;5057498;28;20063;-63
2021/03/21 01:26:36;;;;;;;16.73;9.65;;;3.90;99.90;;;;;;5057681;28;20044;-64
2021/03/21 01:29:01;;;;;;;15.82;9.60;;;3.90;99.90;;;;;;5038735;28;20060;-63
2021/03/21 01:31:27;;;;;;;18.60;9.70;;;3.80;99.90;;;;;;5057146;28;20830;-64
2021/03/21 01:33:53;;;;;;;18.80;10.07;;;3.70;99.90;;;;;;5056952;28;20780;-64
2021/03/21 01:36:25;;;;;;;17.55;10.85;;;3.70;99.90;;;;;;5038704;28;20042;-64
2021/03/21 01:38:53;;;;;;;21.80;11.48;;;3.70;99.90;;;;;;5057019;28;20037;-63
2021/03/21 01:41:39;;;;;;;26.55;12.20;;;3.60;99.90;;;;;;5055601;28;20106;-64
2021/03/21 01:44:09;;;;;;;27.42;12.40;;;3.70;99.90;;;;;;5055319;28;20276;-63
2021/03/21 01:46:35;;;;;;;22.85;11.50;;;3.70;99.90;;;;;;5052970;28;20396;-63
2021/03/21 01:49:23;;;;;;;21.42;11.80;;;3.70;99.90;;;;;;5059024;28;20033;-64
2021/03/21 01:51:52;;;;;;;22.77;11.73;;;3.70;99.90;;;;;;5057846;28;20064;-64
2021/03/21 01:54:20;;;;;;;24.85;12.57;;;3.70;99.90;;;;;;5057430;28;20408;-63
2021/03/21 01:56:47;;;;;;;23.75;12.68;;;3.70;99.90;;;;;;5038167;28;21001;-63
2021/03/21 01:59:23;;;;;;;22.30;12.35;;;3.60;99.90;;;;;;5056978;28;20037;-63
2021/03/21 02:01:50;;;;;;;24.92;13.55;;;3.60;99.90;;;;;;5052428;28;20033;-63
2021/03/21 02:04:16;;;;;;;29.27;13.48;;;3.60;99.90;;;;;;5056388;28;20032;-63
2021/03/21 02:07:06;;;;;;;25.25;14.25;;;3.70;99.90;;;;;;5055765;28;20021;-63
2021/03/21 02:09:50;;;;;;;25.60;14.65;;;3.70;99.90;;;;;;5052033;28;20041;-63
2021/03/21 02:12:19;;;;;;;30.55;14.25;;;3.60;99.90;;;;;;5042575;28;20040;-63
2021/03/21 02:15:18;;;;;;;29.48;15.32;;;3.50;99.90;;;;;;5057407;28;20028;-63
2021/03/21 02:18:01;;;;;;;33.85;14.63;;;3.50;99.90;;;;;;5056084;28;20161;-63
2021/03/21 02:20:54;;;;;;;26.63;14.48;;;3.50;99.90;;;;;;5035623;28;20037;-63
2021/03/21 02:23:47;;;;;;;29.77;15.75;;;3.50;99.90;;;;;;5053327;28;20576;-64
2021/03/21 02:26:50;;;;;;;27.33;15.90;;;3.60;99.90;;;;;;5055475;28;20055;-63
2021/03/21 02:29:38;;;;;;;33.88;15.82;;;3.50;99.90;;;;;;5052475;28;20115;-64
2021/03/21 02:32:23;;;;;;;32.15;15.25;;;3.50;99.90;;;;;;5056116;28;20044;-64
2021/03/21 02:35:07;;;;;;;27.55;15.15;;;3.60;99.90;;;;;;5053281;28;20166;-64
2021/03/21 02:37:51;;;;;;;28.52;16.05;;;3.60;99.90;;;;;;5056508;28;20033;-64
2021/03/21 02:40:35;;;;;;;27.98;15.18;;;3.60;99.90;;;;;;5052839;28;20032;-64
2021/03/21 02:43:06;;;;;;;26.75;14.07;;;3.70;99.90;;;;;;5047171;28;20032;-63
2021/03/21 02:45:36;;;;;;;30.08;15.57;;;3.70;99.90;;;;;;5055976;28;20032;-64
2021/03/21 02:48:21;;;;;;;26.88;14.70;;;3.70;99.90;;;;;;5056389;28;20481;-64
2021/03/21 02:50:56;;;;;;;28.83;15.20;;;3.80;99.90;;;;;;5049609;28;20059;-64
2021/03/21 02:53:33;;;;;;;24.73;14.52;;;3.80;99.90;;;;;;5056533;28;20036;-63
2021/03/21 02:56:02;;;;;;;24.80;13.52;;;3.90;99.90;;;;;;5037123;28;20127;-63
2021/03/21 02:58:46;;;;;;;24.40;13.10;;;3.90;99.90;;;;;;5056495;28;20043;-63
2021/03/21 03:01:17;;;;;;;25.17;12.98;;;4.00;99.90;;;;;;5053780;28;20493;-63
2021/03/21 03:03:46;;;;;;;21.80;12.57;;;4.00;99.90;;;;;;5056434;28;20040;-64
2021/03/21 03:06:18;;;;;;;26.10;12.05;;;4.10;99.90;;;;;;5055795;28;20039;-64
2021/03/21 03:08:49;;;;;;;20.60;11.85;;;4.10;99.90;;;;;;5037749;28;20040;-63
2021/03/21 03:11:38;;;;;;;29.38;12.27;;;4.20;99.90;;;;;;5036985;28;20041;-63
2021/03/21 03:14:09;;;;;;;26.63;12.10;;;4.10;99.90;;;;;;5055710;28;20298;-63
2021/03/21 03:16:54;;;;;;;22.42;11.45;;;4.10;99.90;;;;;;5055975;28;20580;-68
2021/03/21 03:19:36;;;;;;;23.77;12.82;;;4.10;99.90;;;;;;5054240;28;20043;-69
2021/03/21 03:22:04;;;;;;;23.10;12.68;;;4.10;99.90;;;;;;5057960;28;20028;-69
2021/03/21 03:24:47;;;;;;;23.00;12.45;;;4.20;99.90;;;;;;5059223;28;20056;-69
2021/03/21 03:27:28;;;;;;;27.00;14.35;;;4.10;99.90;;;;;;5058439;28;20144;-68
2021/03/21 03:30:04;;;;;;;26.27;13.07;;;4.10;99.90;;;;;;5057273;28;20036;-69
2021/03/21 03:32:30;;;;;;;29.33;13.68;;;4.10;99.90;;;;;;5058837;28;20143;-68
2021/03/21 03:34:57;;;;;;;26.48;13.30;;;4.10;99.90;;;;;;5049780;28;20150;-68
2021/03/21 03:37:25;;;;;;;24.10;13.15;;;4.10;99.90;;;;;;5058207;28;20047;-68
2021/03/21 03:39:51;;;;;;;25.77;12.70;;;4.10;99.90;;;;;;5034266;28;20508;-69
2021/03/21 03:42:31;;;;;;;29.80;12.85;;;4.10;99.90;;;;;;5041446;28;20044;-69
2021/03/21 03:45:03;;;;;;;24.70;13.18;;;4.20;99.90;;;;;;5059533;28;20042;-69
2021/03/21 03:47:44;;;;;;;25.48;12.80;;;4.10;99.90;;;;;;5060582;28;20033;-69
2021/03/21 03:50:35;;;;;;;24.35;12.30;;;4.20;99.90;;;;;;5056309;28;20139;-69
2021/03/21 03:53:28;;;;;;;22.85;12.25;;;4.10;99.90;;;;;;5059791;28;20109;-69
2021/03/21 03:56:02;;;;;;;22.10;11.35;;;4.20;99.90;;;;;;5057850;28;20057;-69
2021/03/21 03:58:48;;;;;;;19.40;10.10;;;4.20;99.90;;;;;;5061336;28;20671;-69
2021/03/21 04:01:18;;;;;;;21.35;11.07;;;4.30;99.90;;;;;;5058269;28;20128;-69
2021/03/21 04:03:56;;;;;;;20.33;11.52;;;4.30;99.90;;;;;;5060918;28;20040;-69
2021/03/21 04:07:00;;;;;;;20.85;10.30;;;4.30;99.90;;;;;;5042707;28;20028;-69
2021/03/21 04:09:41;;;;;;;17.60;10.38;;;4.40;99.90;;;;;;5041604;28;20041;-69
2021/03/21 04:12:11;;;;;;;21.98;10.77;;;4.40;99.90;;;;;;5057183;28;20051;-69
2021/03/21 04:14:40;;;;;;;17.30;9.98;;;4.40;99.90;;;;;;5047392;28;20576;-69
2021/03/21 04:17:14;;;;;;;17.15;10.52;;;4.40;99.90;;;;;;5048331;28;20044;-69
2021/03/21 04:20:05;;;;;;;16.43;10.40;;;4.30;99.90;;;;;;5048183;28;20036;-69
2021/03/21 04:22:38;;;;;;;18.88;9.95;;;4.30;99.90;;;;;;5044574;28;20052;-68
2021/03/21 04:25:18;;;;;;;18.70;9.55;;;4.40;99.90;;;;;;5048577;28;20044;-69
2021/03/21 04:27:59;;;;;;;18.45;10.30;;;4.40;99.90;;;;;;5049089;28;20104;-69
2021/03/21 04:30:31;;;;;;;18.38;9.75;;;4.50;99.90;;;;;;5048327;28;20052;-69
2021/03/21 04:32:57;;;;;;;18.05;9.48;;;4.50;99.90;;;;;;5055806;28;20572;-69
2021/03/21 04:35:31;;;;;;;15.25;8.93;;;4.40;99.90;;;;;;5048574;28;20037;-69
2021/03/21 04:38:01;;;;;;;20.73;10.95;;;4.50;99.90;;;;;;5036461;28;20577;-69
2021/03/21 04:40:28;;;;;;;17.45;9.40;;;4.40;99.90;;;;;;5038513;28;20128;-69
2021/03/21 04:43:14;;;;;;;19.45;9.73;;;4.50;99.90;;;;;;5054931;28;20510;-69
2021/03/21 04:45:47;;;;;;;20.67;9.32;;;4.50;99.90;;;;;;5055485;28;20085;-69
2021/03/21 04:48:18;;;;;;;15.35;8.45;;;4.50;99.90;;;;;;5044000;28;20041;-69
2021/03/21 04:50:45;;;;;;;16.75;9.02;;;4.40;99.90;;;;;;5050434;28;20079;-69
2021/03/21 04:53:38;;;;;;;20.63;9.02;;;4.50;99.90;;;;;;5058695;28;20032;-69
2021/03/21 04:56:23;;;;;;;16.45;9.20;;;4.50;99.90;;;;;;5048180;28;20059;-69
2021/03/21 04:59:05;;;;;;;19.27;8.50;;;4.50;99.90;;;;;;5054883;28;20552;-69
2021/03/21 05:01:36;;;;;;;13.38;8.15;;;4.50;99.90;;;;;;5052338;28;20028;-69
2021/03/21 05:04:05;;;;;;;16.98;8.13;;;4.50;99.90;;;;;;5053437;28;20040;-69
2021/03/21 05:06:51;;;;;;;16.50;8.52;;;4.50;99.90;;;;;;5050245;28;20048;-68
2021/03/21 05:09:21;;;;;;;13.30;7.88;;;4.50;99.90;;;;;;5032707;28;20029;-69
2021/03/21 05:11:59;;;;;;;15.55;8.65;;;4.50;99.90;;;;;;5052585;28;20120;-69
2021/03/21 05:14:51;;;;;;;15.00;7.68;;;4.50;99.90;;;;;;5044408;28;20787;-68
2021/03/21 05:17:55;;;;;;;13.60;7.93;;;4.50;99.90;;;;;;5043918;28;20068;-69
2021/03/21 05:20:48;;;;;;;14.80;7.25;;;4.60;99.90;;;;;;5054512;28;20032;-69
2021/03/21 05:23:43;;;;;;;14.23;7.40;;;4.60;99.90;;;;;;5035901;28;20423;-68
2021/03/21 05:26:19;;;;;;;12.52;6.93;;;4.60;99.90;;;;;;5052525;28;20063;-68
2021/03/21 05:28:49;;;;;;;12.30;7.50;;;4.60;99.90;;;;;;5052017;28;20830;-68
2021/03/21 05:31:15;;;;;;;13.05;7.22;;;4.70;99.90;;;;;;5048813;28;20032;-69
2021/03/21 05:33:41;;;;;;;12.70;6.90;;;4.70;99.90;;;;;;5030875;28;20119;-69
2021/03/21 05:36:39;;;;;;;14.43;7.47;;;4.70;99.90;;;;;;5049568;28;20028;-68
2021/03/21 05:39:17;;;;;;;11.02;7.03;;;4.70;99.90;;;;;;5024452;28;20044;-68
2021/03/21 05:42:01;;;;;;;12.80;6.40;;;4.70;99.90;;;;;;5031462;28;20045;-68
2021/03/21 05:44:58;;;;;;;10.30;6.38;;;4.70;99.90;;;;;;5045402;28;20045;-69
2021/03/21 05:47:44;;;;;;;10.10;5.75;;;4.80;99.90;;;;;;5043528;28;20474;-68
2021/03/21 05:50:32;;;;;;;12.65;6.15;;;4.80;99.90;;;;;;5050310;28;20763;-69
2021/03/21 05:53:24;;;;;;;13.18;6.07;;;4.80;99.90;;;;;;5037354;28;20972;-68
2021/03/21 05:56:20;;;;;;;13.60;6.65;;;4.80;99.90;;;;;;5046577;28;20750;-69
2021/03/21 05:58:58;;;;;;;14.68;7.28;;;4.90;99.90;;;;;;5044056;28;20787;-69
2021/03/21 06:01:42;;;;;;;11.98;6.25;;;4.90;99.90;;;;;;5049217;28;20040;-69
2021/03/21 06:04:39;;;;;;;13.80;6.53;;;4.90;99.90;;;;;;5044676;28;20021;-69
2021/03/21 06:07:23;;;;;;;;;;;5.00;99.90;;;;;;5030163;28;20036;-69
2021/03/21 06:10:26;;;;;;;11.27;6.22;;;5.00;99.90;;;;;;5051528;28;19965;-68
2021/03/21 06:13:16;;;;;;;12.10;6.18;;;5.10;99.90;;;;;;5052150;28;20069;-68
2021/03/21 06:16:14;;;;;;;11.05;6.35;;;5.00;99.90;;;;;;5046630;28;20052;-72
2021/03/21 06:19:17;;;;;;;13.50;6.65;;;5.00;99.90;;;;;;5049497;28;20252;-69
2021/03/21 06:22:18;;;;;;;13.50;6.65;;;5.10;99.90;;;;;;5048835;28;20060;-69
2021/03/21 06:25:10;;;;;;;10.73;6.10;;;5.10;99.90;;;;;;5035138;28;20041;-70
2021/03/21 06:28:08;;;;;;;11.57;6.13;;;5.20;99.90;;;;;;5044564;28;20037;-71
2021/03/21 06:31:05;;;;;;;15.02;6.15;;;5.20;99.90;;;;;;5052962;28;20451;-71
2021/03/21 06:33:46;;;;;;;16.00;6.78;;;5.10;99.90;;;;;;5042927;28;20139;-71
2021/03/21 06:36:23;;;;;;;10.00;5.32;;;5.20;99.90;;;;;;5047785;28;20044;-71
2021/03/21 06:39:11;;;;;;;12.45;5.82;;;5.20;99.90;;;;;;5037258;28;20110;-71
2021/03/21 06:41:48;;;;;;;12.27;6.68;;;5.20;99.90;;;;;;5027708;28;20504;-71
2021/03/21 06:44:14;;;;;;;13.50;6.68;;;5.30;99.90;;;;;;5047812;28;20033;-72
2021/03/21 06:46:42;;;;;;;11.13;6.18;;;5.30;99.90;;;;;;5054837;28;20098;-72
2021/03/21 06:49:14;;;;;;;15.05;6.65;;;5.30;99.90;;;;;;5047014;28;20033;-72
2021/03/21 06:52:01;;;;;;;15.75;6.47;;;5.30;99.90;;;;;;5038008;28;20053;-72
2021/03/21 06:54:33;;;;;;;13.65;6.68;;;5.30;99.90;;;;;;5038577;28;20039;-71
2021/03/21 06:57:16;;;;;;;16.90;8.88;;;5.30;99.90;;;;;;5056020;28;20036;-72
2021/03/21 06:59:55;;;;;;;11.98;6.97;;;5.40;99.90;;;;;;5055518;28;20039;-72
2021/03/21 07:02:33;;;;;;;12.32;6.22;;;5.50;99.90;;;;;;5051816;28;20670;-72
2021/03/21 07:05:04;;;;;;;10.93;6.03;;;5.50;99.90;;;;;;5050369;28;20083;-72
2021/03/21 07:07:51;;;;;;;8.98;5.45;;;5.60;99.90;;;;;;5048941;28;20155;-73
2021/03/21 07:10:47;;;;;;;9.65;5.10;;;5.60;99.90;;;;;;5036860;28;20396;-72
2021/03/21 07:13:50;;;;;;;10.90;5.60;;;5.50;99.90;;;;;;5051526;28;20037;-72
2021/03/21 07:16:45;;;;;;;10.13;5.35;;;5.60;99.90;;;;;;5051009;28;20040;-72
2021/03/21 07:19:48;;;;;;;9.57;5.25;;;5.70;99.90;;;;;;5046954;28;20504;-72
2021/03/21 07:22:15;;;;;;;8.13;4.20;;;5.70;99.90;;;;;;5054719;28;20032;-72
2021/03/21 07:25:19;;;;;;;8.27;4.30;;;5.70;99.90;;;;;;5051880;28;20031;-71
2021/03/21 07:27:51;;;;;;;7.88;4.72;;;5.70;99.90;;;;;;5047186;28;20082;-71
2021/03/21 07:30:39;;;;;;;8.13;5.45;;;5.80;99.90;;;;;;5032889;28;20143;-71
2021/03/21 07:33:26;;;;;;;5.93;3.28;;;5.80;99.90;;;;;;5052886;28;20754;-72
2021/03/21 07:36:16;;;;;;;12.82;8.93;;;5.70;99.90;;;;;;5055739;28;20040;-71
2021/03/21 07:38:59;;;;;;;9.50;3.88;;;5.80;99.90;;;;;;5044876;28;20040;-71
2021/03/21 07:42:16;;;;;;;6.25;3.40;;;5.80;99.90;;;;;;5038149;28;20193;-70
2021/03/21 07:45:02;;;;;;;7.00;4.13;;;5.80;99.90;;;;;;5007311;28;20048;-72
2021/03/21 07:47:45;;;;;;;4.88;2.85;;;5.90;99.90;;;;;;5051035;28;20044;-72
2021/03/21 07:50:29;;;;;;;9.02;5.00;;;5.90;99.90;;;;;;5050376;28;20044;-72
2021/03/21 07:53:17;;;;;;;4.93;2.92;;;6.00;99.90;;;;;;5048157;28;20028;-72
2021/03/21 07:55:50;;;;;;;5.38;3.30;;;6.10;99.90;;;;;;5049424;28;20585;-72
2021/03/21 07:58:25;;;;;;;5.38;2.92;;;6.10;99.90;;;;;;5051046;28;20103;-73
2021/03/21 08:00:51;;;;;;;5.47;3.25;;;6.10;99.90;;;;;;5052352;28;20492;-71
2021/03/21 08:03:42;;;;;;;5.28;3.80;;;6.20;99.90;;;;;;5012063;28;20036;-72
2021/03/21 08:06:14;;;;;;;8.63;4.57;;;6.30;99.90;;;;;;5054950;28;20044;-71
2021/03/21 08:08:46;;;;;;;8.48;4.30;;;6.30;99.90;;;;;;5040133;28;20047;-72
2021/03/21 08:11:17;;;;;;;6.97;2.38;;;6.20;99.90;;;;;;5035260;28;20048;-71
2021/03/21 08:13:45;;;;;;;6.03;3.80;;;6.20;99.90;;;;;;5040856;28;20093;-71
2021/03/21 08:16:18;;;;;;;7.40;3.83;;;6.20;99.90;;;;;;5053619;28;20036;-71
2021/03/21 08:18:47;;;;;;;6.63;3.25;;;6.20;99.90;;;;;;5033675;28;20122;-71
2021/03/21 08:21:24;;;;;;;8.73;3.30;;;6.20;99.90;;;;;;5046396;28;20064;-72
2021/03/21 08:23:52;;;;;;;10.45;4.80;;;6.10;99.90;;;;;;5052156;28;20028;-71
2021/03/21 08:26:25;;;;;;;12.40;4.32;;;6.10;99.90;;;;;;5047948;28;20115;-71
2021/03/21 08:29:04;;;;;;;14.55;5.72;;;6.10;99.90;;;;;;5051313;28;20079;-71
2021/03/21 08:31:37;;;;;;;31.38;13.95;;;6.10;99.90;;;;;;5049661;28;20037;-71
2021/03/21 08:34:45;;;;;;;24.90;8.32;;;6.10;99.90;;;;;;5052668;28;20119;-72
2021/03/21 08:37:21;;;;;;;22.23;7.05;;;6.00;99.90;;;;;;5048389;28;20071;-71
2021/03/21 08:39:51;;;;;;;20.50;7.75;;;5.80;99.90;;;;;;5053167;28;20033;-71
2021/03/21 08:42:25;;;;;;;34.90;8.48;;;5.80;99.90;;;;;;5052079;28;20040;-73
2021/03/21 08:44:51;;;;;;;26.45;6.75;;;5.90;99.90;;;;;;5037740;28;20439;-71
2021/03/21 08:47:21;;;;;;;21.42;4.90;;;5.90;99.90;;;;;;5055565;28;20078;-71
2021/03/21 08:49:49;;;;;;;31.95;10.57;;;6.00;99.90;;;;;;5050665;28;20024;-71
2021/03/21 08:52:32;;;;;;;26.90;7.35;;;6.00;99.90;;;;;;5050758;28;20036;-71
2021/03/21 08:54:59;;;;;;;25.55;7.75;;;6.00;99.90;;;;;;5051243;28;20788;-71
2021/03/21 08:57:36;;;;;;;22.67;6.50;;;6.00;99.90;;;;;;5049650;28;20060;-71
2021/03/21 09:00:21;;;;;;;22.70;7.03;;;6.00;99.90;;;;;;5047660;28;20036;-71
2021/03/21 09:02:47;;;;;;;20.45;5.85;;;5.90;99.90;;;;;;5052181;28;20119;-66
2021/03/21 09:05:15;;;;;;;13.65;2.50;;;5.90;99.90;;;;;;5054739;28;20178;-66
2021/03/21 09:07:50;;;;;;;20.02;3.42;;;5.90;99.90;;;;;;5039179;28;20038;-66
2021/03/21 09:10:30;;;;;;;17.85;3.17;;;6.00;99.90;;;;;;5052679;28;20790;-71
2021/03/21 09:13:13;;;;;;;20.20;4.80;;;6.10;99.90;;;;;;5049207;28;20448;-71
2021/03/21 09:15:44;;;;;;;14.63;3.03;;;6.20;99.90;;;;;;5048470;28;20063;-71
2021/03/21 09:18:15;;;;;;;15.43;3.40;;;6.50;99.90;;;;;;5052010;28;20123;-71
2021/03/21 09:20:47;;;;;;;23.27;3.35;;;6.60;99.90;;;;;;5047649;28;20036;-70
2021/03/21 09:23:33;;;;;;;19.15;3.50;;;6.60;99.90;;;;;;5046064;28;20029;-70
2021/03/21 09:26:01;;;;;;;23.00;3.50;;;6.80;99.90;;;;;;5051586;28;20501;-66
2021/03/21 09:28:32;;;;;;;21.15;3.30;;;7.00;99.90;;;;;;5056103;28;20489;-66
2021/03/21 09:31:05;;;;;;;19.27;4.15;;;7.00;99.90;;;;;;5037281;28;20075;-66
2021/03/21 09:33:40;;;;;;;16.52;3.20;;;7.10;99.90;;;;;;5053137;28;20752;-66
2021/03/21 09:36:16;;;;;;;17.05;2.90;;;7.20;99.90;;;;;;5051683;28;20697;-66
2021/03/21 09:38:53;;;;;;;22.30;3.08;;;7.10;99.90;;;;;;5051977;28;20044;-66
2021/03/21 09:41:19;;;;;;;19.67;3.55;;;7.10;99.90;;;;;;5051607;28;20025;-65
2021/03/21 09:43:48;;;;;;;16.83;3.88;;;7.10;99.90;;;;;;5048059;28;20028;-65
2021/03/21 09:46:49;;;;;;;17.15;3.22;;;7.10;99.90;;;;;;5050714;28;20123;-70
2021/03/21 09:49:51;;;;;;;31.23;4.57;;;7.10;99.90;;;;;;5048261;28;20024;-72
2021/03/21 09:52:38;;;;;;;17.60;3.10;;;7.20;99.90;;;;;;5049299;28;20806;-70
2021/03/21 09:55:13;;;;;;;21.85;3.40;;;7.20;99.90;;;;;;5048975;28;20475;-70
2021/03/21 09:57:52;;;;;;;23.00;4.13;;;7.20;99.90;;;;;;5050326;28;20668;-69
2021/03/21 10:00:33;;;;;;;27.48;5.78;;;7.10;99.90;;;;;;5043510;28;20268;-73
2021/03/21 10:03:05;;;;;;;29.40;3.75;;;7.10;99.90;;;;;;5056178;28;20094;-72
2021/03/21 10:05:38;;;;;;;25.33;4.22;;;7.00;99.90;;;;;;5043025;28;20032;-74
2021/03/21 10:08:35;;;;;;;21.40;4.47;;;7.00;99.90;;;;;;5048266;28;20113;-72
2021/03/21 10:11:05;;;;;;;19.23;3.35;;;7.00;99.90;;;;;;5049461;28;20033;-76
2021/03/21 10:13:44;;;;;;;21.60;3.15;;;7.00;99.90;;;;;;5050688;28;20044;-72
2021/03/21 10:16:13;;;;;;;24.92;3.17;;;7.10;99.90;;;;;;5036228;28;20670;-74
2021/03/21 10:18:43;;;;;;;29.25;3.97;;;7.20;99.90;;;;;;5048265;28;20106;-74
2021/03/21 10:21:12;;;;;;;32.80;4.72;;;7.30;99.90;;;;;;5049280;28;20016;-73
2021/03/21 10:23:51;;;;;;;19.30;3.60;;;7.40;99.90;;;;;;5030374;28;20033;-73
2021/03/21 10:26:22;;;;;;;28.40;5.55;;;7.30;99.90;;;;;;5043208;28;20071;-73
2021/03/21 10:28:49;;;;;;;25.90;3.08;;;7.30;99.90;;;;;;5027782;28;20596;-75
2021/03/21 10:31:36;;;;;;;19.50;3.72;;;7.40;99.90;;;;;;5052527;28;20131;-73
2021/03/21 10:34:02;;;;;;;23.85;3.38;;;7.30;99.90;;;;;;5053983;28;20123;-73
2021/03/21 10:36:43;;;;;;;83.72;24.02;;;7.30;99.90;;;;;;5047798;28;20041;-75
2021/03/21 10:39:12;;;;;;;86.28;27.88;;;7.30;99.90;;;;;;5056810;28;20106;-73
2021/03/21 10:41:59;;;;;;;35.47;7.07;;;7.30;99.90;;;;;;5052033;28;20134;-73
2021/03/21 10:44:34;;;;;;;25.92;4.90;;;7.40;99.90;;;;;;5041134;28;20024;-73
2021/03/21 10:47:20;;;;;;;35.42;7.50;;;7.50;99.90;;;;;;5052465;28;20753;-73
2021/03/21 10:49:47;;;;;;;29.08;5.05;;;7.40;99.90;;;;;;5052540;28;20140;-73
2021/03/21 10:52:18;;;;;;;26.92;5.40;;;7.40;99.90;;;;;;5050943;28;20040;-73
2021/03/21 10:54:44;;;;;;;20.85;3.58;;;7.40;99.90;;;;;;5034303;28;20044;-73
2021/03/21 10:57:43;;;;;;;26.17;5.90;;;7.30;99.90;;;;;;5055172;28;20028;-73
2021/03/21 11:00:29;;;;;;;17.85;3.38;;;7.40;99.90;;;;;;5037811;28;20068;-73
2021/03/21 11:03:01;;;;;;;12.65;2.67;;;7.40;99.90;;;;;;5051485;28;20040;-73
2021/03/21 11:05:44;;;;;;;21.10;4.18;;;7.30;99.90;;;;;;5051348;28;20488;-73
2021/03/21 11:08:13;;;;;;;21.20;3.92;;;7.20;99.90;;;;;;5051517;28;20059;-73
2021/03/21 11:10:40;;;;;;;24.38;3.92;;;7.10;99.90;;;;;;5051616;28;20036;-73
2021/03/21 11:13:09;;;;;;;26.48;5.15;;;7.10;99.90;;;;;;5049750;28;20079;-73
2021/03/21 11:15:49;;;;;;;19.27;3.10;;;7.20;99.90;;;;;;5054963;28;20036;-72
2021/03/21 11:18:28;;;;;;;17.70;4.22;;;7.30;99.90;;;;;;5051888;28;20043;-72
2021/03/21 11:21:24;;;;;;;30.20;4.75;;;7.40;99.90;;;;;;5037367;28;20041;-73
2021/03/21 11:24:19;;;;;;;27.77;4.10;;;7.40;99.90;;;;;;5030496;28;20052;-72
2021/03/21 11:26:45;;;;;;;28.63;4.38;;;7.30;99.90;;;;;;5049550;28;20056;-72
2021/03/21 11:29:24;;;;;;;22.63;4.60;;;7.20;99.90;;;;;;5018329;28;20545;-73
2021/03/21 11:31:54;;;;;;;31.85;5.93;;;7.10;99.90;;;;;;5054020;28;20086;-72
2021/03/21 11:34:21;;;;;;;23.35;4.35;;;7.10;99.90;;;;;;5048587;28;20046;-73
2021/03/21 11:36:57;;;;;;;31.08;4.70;;;7.30;99.90;;;;;;5048588;28;20548;-73
2021/03/21 11:39:54;;;;;;;24.95;5.00;;;7.20;99.90;;;;;;5036194;28;20029;-73
2021/03/21 11:43:06;;;;;;;26.45;4.00;;;7.20;99.90;;;;;;5018308;28;20086;-74
2021/03/21 11:45:36;;;;;;;36.70;6.05;;;7.40;99.90;;;;;;4976880;28;20046;-74
2021/03/21 11:48:07;;;;;;;26.58;4.75;;;7.40;99.90;;;;;;4976775;28;20092;-74
2021/03/21 11:50:35;;;;;;;35.58;4.90;;;7.60;99.90;;;;;;5020346;28;20669;-73
2021/03/21 11:53:03;;;;;;;37.85;5.93;;;7.60;99.90;;;;;;5048266;28;20089;-74
2021/03/21 11:55:35;;;;;;;25.05;4.53;;;7.80;99.90;;;;;;5052877;28;20863;-74
2021/03/21 11:58:28;;;;;;;23.75;5.07;;;8.10;99.90;;;;;;5053713;28;20029;-73
2021/03/21 12:01:25;;;;;;;30.60;5.43;;;8.40;99.90;;;;;;5048182;28;20048;-73
2021/03/21 12:03:57;;;;;;;35.78;6.32;;;8.60;99.90;;;;;;5023358;28;20045;-74
2021/03/21 12:06:45;;;;;;;29.80;5.82;;;8.80;99.90;;;;;;5047326;28;20032;-73
2021/03/21 12:09:27;;;;;;;33.53;5.95;;;9.00;99.90;;;;;;5036439;28;20039;-72
2021/03/21 12:11:55;;;;;;;28.98;4.50;;;9.10;99.90;;;;;;5039493;28;20060;-75
2021/03/21 12:14:27;;;;;;;31.63;4.82;;;9.40;99.90;;;;;;5030037;28;20046;-73
2021/03/21 12:16:53;;;;;;;30.92;5.35;;;9.40;99.90;;;;;;5038776;28;20036;-73
2021/03/21 12:19:45;;;;;;;28.15;4.97;;;9.70;99.90;;;;;;5055965;28;20028;-73
2021/03/21 12:22:37;;;;;;;29.50;4.32;;;10.40;99.90;;;;;;5047214;28;20037;-73
2021/03/21 12:25:21;;;;;;;22.63;3.35;;;10.90;99.90;;;;;;5049448;28;20039;-75
2021/03/21 12:27:47;;;;;;;24.17;3.95;;;11.50;99.90;;;;;;5039408;28;20110;-75
2021/03/21 12:30:28;;;;;;;24.65;4.30;;;12.00;98.50;;;;;;5031580;28;20040;-73
2021/03/21 12:33:34;;;;;;;22.63;4.28;;;11.90;99.20;;;;;;5052117;28;20051;-73
2021/03/21 12:36:06;;;;;;;18.85;4.10;;;12.50;99.00;;;;;;5020018;28;20153;-71
2021/03/21 12:38:39;;;;;;;23.30;3.72;;;12.70;96.20;;;;;;5052373;28;20028;-71
2021/03/21 12:41:34;;;;;;;24.48;3.88;;;12.10;97.20;;;;;;5046933;28;20032;-72
2021/03/21 12:44:14;;;;;;;17.17;3.38;;;12.10;97.80;;;;;;5047286;28;20029;-67
2021/03/21 12:46:45;;;;;;;20.70;3.85;;;12.20;98.00;;;;;;5050016;28;20120;-66
2021/03/21 12:49:38;;;;;;;20.77;3.65;;;12.50;98.60;;;;;;5053648;28;20438;-66
2021/03/21 12:52:07;;;;;;;15.68;3.28;;;12.60;97.20;;;;;;5054360;28;20047;-66
2021/03/21 12:54:34;;;;;;;26.30;4.03;;;12.00;98.10;;;;;;5049276;28;20128;-66
2021/03/21 12:57:00;;;;;;;22.17;3.55;;;11.90;98.10;;;;;;5049522;28;20029;-66
2021/03/21 12:59:26;;;;;;;19.25;3.60;;;11.50;99.40;;;;;;5053910;28;20040;-72
2021/03/21 13:01:51;;;;;;;19.65;3.40;;;11.70;99.30;;;;;;5051985;28;20420;-72
2021/03/21 13:04:17;;;;;;;19.58;4.20;;;12.40;99.00;;;;;;5032583;28;20037;-74
2021/03/21 13:06:43;;;;;;;17.70;3.45;;;13.30;96.00;;;;;;5048921;28;20021;-74
2021/03/21 13:09:10;;;;;;;16.42;3.33;;;13.40;95.80;;;;;;5048246;28;20548;-72
2021/03/21 13:11:37;;;;;;;21.65;3.72;;;13.70;92.90;;;;;;5045228;28;20032;-73
2021/03/21 13:14:04;;;;;;;24.13;4.25;;;13.40;94.10;;;;;;5022287;28;20039;-73
2021/03/21 13:16:30;;;;;;;21.17;4.18;;;12.80;95.40;;;;;;5056824;28;20144;-72
2021/03/21 13:18:56;;;;;;;20.10;3.30;;;12.30;95.80;;;;;;5052529;28;20404;-72
2021/03/21 13:21:22;;;;;;;20.23;3.63;;;11.80;97.30;;;;;;5051113;28;20032;-73
2021/03/21 13:23:49;;;;;;;18.83;3.28;;;11.40;98.20;;;;;;5046796;28;20770;-73
2021/03/21 13:26:15;;;;;;;18.90;3.55;;;11.20;99.80;;;;;;5051096;28;20036;-74
2021/03/21 13:28:41;;;;;;;19.55;3.03;;;11.20;98.90;;;;;;5045456;28;20048;-73
2021/03/21 13:31:07;;;;;;;19.02;3.55;;;11.70;98.40;;;;;;5048957;28;20035;-73
2021/03/21 13:33:34;;;;;;;17.35;3.53;;;12.50;97.20;;;;;;5052757;28;20152;-74
2021/03/21 13:36:07;;;;;;;21.45;3.15;;;13.30;94.40;;;;;;5048429;28;20515;-74